Time;durP1;ratioP1;P1;durP2;ratioP2;P2;SDS_P1;SDS_P2;PMS_P1;PMS_P2;Temp;Humidity;BMP_temperature;BMP_pressure;BME280_temperature;BME280_humidity;BME280_pressure;Samples;Min_cycle;Max_cycle;Signal;HPM_P1;HPM_P2
2024/04/01 17:08:17;;;;;;;6.18;2.20;;;;;;;;;;6221059;22;20006;-89
2024/04/01 17:10:47;;;;;;;8.40;2.10;;;;;;;;;;6248112;23;20012;-85
2024/04/01 17:13:14;;;;;;;;;;;;;;;;;;6247627;23;20004;-89
2024/04/01 17:15:41;;;;;;;10.38;4.80;;;;;;;;;;6247540;23;19907;-89
2024/04/01 17:18:08;;;;;;;4.38;3.00;;;;;;;;;;6250034;23;20019;-86
2024/04/01 17:20:33;;;;;;;6.97;4.28;;;;;;;;;;6247075;23;20004;-89
2024/04/01 17:23:02;;;;;;;2.88;2.60;;;;;;;;;;6247119;23;20010;-90
2024/04/01 17:25:30;;;;;;;2.90;2.45;;;;;;;;;;6247382;23;20058;-86
2024/04/01 17:27:59;;;;;;;5.25;3.42;;;;;;;;;;6247084;23;20008;-85
2024/04/01 17:30:25;;;;;;;11.37;5.87;;;;;;;;;;6247297;23;20031;-91
2024/04/01 17:32:52;;;;;;;10.23;4.32;;;;;;;;;;6247656;23;20000;-86
2024/04/01 17:35:18;;;;;;;13.88;5.95;;;;;;;;;;6247811;23;20126;-91
2024/04/01 17:37:43;;;;;;;11.95;5.55;;;;;;;;;;6247133;23;20053;-89
2024/04/01 17:40:12;;;;;;;4.65;1.83;;;;;;;;;;6247150;23;20138;-91
2024/04/01 17:42:39;;;;;;;42.97;15.53;;;;;;;;;;6247312;23;20004;-90
2024/04/01 17:45:10;;;;;;;12.40;5.75;;;;;;;;;;6247539;23;20226;-90
2024/04/01 17:47:40;;;;;;;234.18;74.50;;;;;;;;;;6247436;23;20004;-87
2024/04/01 17:50:06;;;;;;;57.10;22.77;;;;;;;;;;6248859;23;20324;-94
2024/04/01 17:52:33;;;;;;;9.27;6.45;;;;;;;;;;6221886;23;20000;-95
2024/04/01 17:55:00;;;;;;;7.85;4.25;;;;;;;;;;6222009;23;20331;-94
2024/04/01 17:57:26;;;;;;;6.45;4.30;;;;;;;;;;6249053;23;20007;-96
2024/04/01 17:59:52;;;;;;;16.52;12.02;;;;;;;;;;6226571;23;20075;-94
2024/04/01 18:02:19;;;;;;;11.27;7.93;;;;;;;;;;6224981;23;20172;-96
2024/04/01 18:04:46;;;;;;;2.65;1.52;;;;;;;;;;6224336;23;20035;-92
2024/04/01 18:07:13;;;;;;;2.45;1.83;;;;;;;;;;6226420;23;20012;-96
2024/04/01 18:09:40;;;;;;;3.60;1.90;;;;;;;;;;6221801;23;20012;-95
2024/04/01 18:12:06;;;;;;;4.13;1.30;;;;;;;;;;6247948;23;20003;-94
2024/04/01 18:14:32;;;;;;;1.25;1.15;;;;;;;;;;6220745;23;20086;-92
2024/04/01 18:16:58;;;;;;;1.65;1.05;;;;;;;;;;6229361;22;20004;-96
2024/04/01 18:19:24;;;;;;;1.08;1.08;;;;;;;;;;6224400;23;20450;-95
2024/04/01 18:21:50;;;;;;;2.95;1.42;;;;;;;;;;6220300;23;20000;-95
2024/04/01 18:24:17;;;;;;;1.75;0.90;;;;;;;;;;6220766;23;20012;-93
2024/04/01 18:26:43;;;;;;;1.98;0.95;;;;;;;;;;6221002;23;20008;-94
2024/04/01 18:29:09;;;;;;;3.05;0.88;;;;;;;;;;6222374;23;20058;-94
2024/04/01 18:31:35;;;;;;;1.40;1.30;;;;;;;;;;6222176;23;20008;-94
2024/04/01 18:34:01;;;;;;;1.60;1.45;;;;;;;;;;6226896;23;20066;-95
2024/04/01 18:36:27;;;;;;;1.17;1.10;;;;;;;;;;6194649;23;20012;-92
2024/04/01 18:38:55;;;;;;;1.30;1.20;;;;;;;;;;6218220;23;20016;-92
2024/04/01 18:41:20;;;;;;;5.93;1.10;;;;;;;;;;6217415;23;20440;-93
2024/04/01 18:43:52;;;;;;;1.73;1.30;;;;;;;;;;6217174;23;20010;-95
2024/04/01 18:46:17;;;;;;;2.15;1.55;;;;;;;;;;6191008;23;20005;-89
2024/04/01 18:48:43;;;;;;;5.43;2.72;;;;;;;;;;6216703;23;20011;-95
2024/04/01 18:51:09;;;;;;;39.17;9.50;;;;;;;;;;6215122;23;20009;-93
2024/04/01 18:53:35;;;;;;;137.00;37.25;;;;;;;;;;6216292;23;20028;-90
2024/04/01 18:56:04;;;;;;;90.60;25.20;;;;;;;;;;6189789;23;20059;-89
2024/04/01 18:58:31;;;;;;;52.47;15.93;;;;;;;;;;6215113;23;20012;-93
2024/04/01 19:00:56;;;;;;;27.42;9.85;;;;;;;;;;6190504;23;20004;-90
2024/04/01 19:03:22;;;;;;;6.07;3.17;;;;;;;;;;6216916;23;20007;-94
2024/04/01 19:05:47;;;;;;;8.45;5.55;;;;;;;;;;6217354;23;20004;-90
2024/04/01 19:08:13;;;;;;;11.43;4.72;;;;;;;;;;6218127;23;20075;-93
2024/04/01 19:10:38;;;;;;;10.00;6.30;;;;;;;;;;6217794;23;20051;-93
2024/04/01 19:13:04;;;;;;;5.50;4.00;;;;;;;;;;6218716;23;20328;-92
2024/04/01 19:15:30;;;;;;;5.18;3.80;;;;;;;;;;6218690;23;20050;-93
2024/04/01 19:17:56;;;;;;;6.78;4.65;;;;;;;;;;6219048;23;20142;-93
2024/04/01 19:20:21;;;;;;;5.03;2.72;;;;;;;;;;6216610;23;20115;-94
2024/04/01 19:22:47;;;;;;;4.43;2.53;;;;;;;;;;6191973;23;20355;-94
2024/04/01 19:25:12;;;;;;;2.22;2.03;;;;;;;;;;6192544;23;20016;-93
2024/04/01 19:27:38;;;;;;;1.70;1.60;;;;;;;;;;6191714;23;20503;-89
2024/04/01 19:30:04;;;;;;;1.90;1.70;;;;;;;;;;6192033;23;20103;-92
2024/04/01 19:32:30;;;;;;;2.47;2.35;;;;;;;;;;6218677;23;20082;-92
2024/04/01 19:34:56;;;;;;;2.90;1.55;;;;;;;;;;6218847;23;20377;-91
2024/04/01 19:37:21;;;;;;;5.75;1.60;;;;;;;;;;6218225;23;20008;-92
2024/04/01 19:39:47;;;;;;;2.33;1.63;;;;;;;;;;6218544;23;20008;-92
2024/04/01 19:42:13;;;;;;;4.75;1.80;;;;;;;;;;6218283;23;20026;-92
2024/04/01 19:44:43;;;;;;;2.15;1.50;;;;;;;;;;6217209;23;20058;-92
2024/04/01 19:47:09;;;;;;;2.15;2.05;;;;;;;;;;6218578;23;20032;-94
2024/04/01 19:49:35;;;;;;;3.17;1.63;;;;;;;;;;6216578;23;20012;-91
2024/04/01 19:52:01;;;;;;;3.22;1.48;;;;;;;;;;6218576;23;20004;-92
2024/04/01 19:54:37;;;;;;;1.63;1.15;;;;;;;;;;6217073;23;20091;-92
2024/04/01 19:57:04;;;;;;;1.92;1.40;;;;;;;;;;6218655;23;20004;-91
2024/04/01 19:59:30;;;;;;;2.40;1.50;;;;;;;;;;6218161;23;19997;-93
2024/04/01 20:01:56;;;;;;;3.40;1.40;;;;;;;;;;6218124;23;20412;-92
2024/04/01 20:04:24;;;;;;;1.55;1.10;;;;;;;;;;6216490;23;20007;-94
2024/04/01 20:06:51;;;;;;;1.50;1.40;;;;;;;;;;6217258;23;20009;-95
2024/04/01 20:09:28;;;;;;;1.80;1.48;;;;;;;;;;6216837;23;20003;-94
2024/04/01 20:11:55;;;;;;;1.85;1.40;;;;;;;;;;6216759;23;20380;-93
2024/04/01 20:14:22;;;;;;;1.27;1.17;;;;;;;;;;6216667;23;20016;-93
2024/04/01 20:16:48;;;;;;;2.03;1.40;;;;;;;;;;6191621;23;20000;-90
2024/04/01 20:19:14;;;;;;;1.35;1.25;;;;;;;;;;6217440;23;20008;-93
2024/04/01 20:21:40;;;;;;;1.05;1.05;;;;;;;;;;6217604;23;20004;-92
2024/04/01 20:24:17;;;;;;;1.30;1.20;;;;;;;;;;6216470;23;20080;-93
2024/04/01 20:26:43;;;;;;;1.15;1.10;;;;;;;;;;6191435;23;20009;-92
2024/04/01 20:29:09;;;;;;;1.42;1.35;;;;;;;;;;6217728;23;20083;-94
2024/04/01 20:31:35;;;;;;;3.20;2.17;;;;;;;;;;6216080;23;20051;-89
2024/04/01 20:34:02;;;;;;;1.40;1.30;;;;;;;;;;6190785;23;20059;-93
2024/04/01 20:36:28;;;;;;;1.38;1.27;;;;;;;;;;6190819;23;20450;-89
2024/04/01 20:38:53;;;;;;;1.27;1.20;;;;;;;;;;6217529;23;20032;-93
2024/04/01 20:41:24;;;;;;;1.15;1.05;;;;;;;;;;6216256;23;20012;-94
2024/04/01 20:43:55;;;;;;;1.10;1.10;;;;;;;;;;6217575;23;20055;-92
2024/04/01 20:46:22;;;;;;;1.75;1.27;;;;;;;;;;6217558;23;20028;-93
2024/04/01 20:48:49;;;;;;;1.10;1.00;;;;;;;;;;6215702;23;20001;-94
2024/04/01 20:51:16;;;;;;;1.20;1.10;;;;;;;;;;6217316;23;20005;-92
2024/04/01 20:53:44;;;;;;;1.30;1.20;;;;;;;;;;6216212;23;20008;-94
2024/04/01 20:56:25;;;;;;;1.40;1.20;;;;;;;;;;6215943;23;20586;-90
2024/04/01 20:59:01;;;;;;;1.10;1.10;;;;;;;;;;6217312;23;20488;-92
2024/04/01 21:01:26;;;;;;;1.20;1.10;;;;;;;;;;6216031;23;20087;-94
2024/04/01 21:03:52;;;;;;;1.90;1.40;;;;;;;;;;6217662;23;20098;-94
2024/04/01 21:06:18;;;;;;;2.35;1.20;;;;;;;;;;6217572;23;20001;-93
2024/04/01 21:08:47;;;;;;;3.17;1.20;;;;;;;;;;6191222;23;20490;-94
2024/04/01 21:11:17;;;;;;;2.15;1.15;;;;;;;;;;6191110;23;20439;-94
2024/04/01 21:13:44;;;;;;;;;;;;;;;;;;6191540;23;20009;-94
2024/04/01 21:16:10;;;;;;;1.35;1.10;;;;;;;;;;6216148;23;19912;-94
2024/04/01 21:18:42;;;;;;;0.95;0.95;;;;;;;;;;6217216;23;20024;-93
2024/04/01 21:21:08;;;;;;;2.45;1.35;;;;;;;;;;6217380;23;20139;-94
2024/04/01 21:23:34;;;;;;;2.72;1.25;;;;;;;;;;6217185;23;20035;-90
2024/04/01 21:26:01;;;;;;;1.40;1.30;;;;;;;;;;6215708;23;20454;-93
2024/04/01 21:28:26;;;;;;;1.15;1.05;;;;;;;;;;6217645;23;19992;-94
2024/04/01 21:30:53;;;;;;;1.38;1.30;;;;;;;;;;6217142;23;20009;-94
2024/04/01 21:33:18;;;;;;;2.85;1.15;;;;;;;;;;6218208;23;20004;-94
2024/04/01 21:35:44;;;;;;;2.05;1.33;;;;;;;;;;6190925;23;20025;-94
2024/04/01 21:38:10;;;;;;;1.10;1.00;;;;;;;;;;6217129;23;20012;-92
2024/04/01 21:40:35;;;;;;;1.58;1.48;;;;;;;;;;6217161;23;20005;-94
2024/04/01 21:43:01;;;;;;;3.70;1.40;;;;;;;;;;6217267;23;19997;-95
2024/04/01 21:45:26;;;;;;;1.52;1.23;;;;;;;;;;6217216;23;20008;-92
2024/04/01 21:47:53;;;;;;;10.23;1.88;;;;;;;;;;6190960;23;20007;-95
2024/04/01 21:50:22;;;;;;;1.50;1.40;;;;;;;;;;6217467;23;20004;-91
2024/04/01 21:52:49;;;;;;;1.30;1.13;;;;;;;;;;6217898;23;20012;-96
